sensor_id;sensor_type;location;lat;lon;timestamp;P1;durP1;ratioP1;P2;durP2;ratioP2
1358;SDS011;673;48.098;14.422;2023-02-07T00:00:22;10.70;;;5.95;;
1358;SDS011;673;48.098;14.422;2023-02-07T00:02:50;6.32;;;5.70;;
1358;SDS011;673;48.098;14.422;2023-02-07T00:05:19;12.30;;;6.82;;
1358;SDS011;673;48.098;14.422;2023-02-07T00:07:46;9.82;;;5.72;;
1358;SDS011;673;48.098;14.422;2023-02-07T00:10:15;7.10;;;6.03;;
1358;SDS011;673;48.098;14.422;2023-02-07T00:12:42;11.65;;;7.07;;
1358;SDS011;673;48.098;14.422;2023-02-07T00:15:09;10.05;;;6.88;;
1358;SDS011;673;48.098;14.422;2023-02-07T00:17:36;14.80;;;7.57;;
1358;SDS011;673;48.098;14.422;2023-02-07T00:20:03;5.18;;;4.03;;
1358;SDS011;673;48.098;14.422;2023-02-07T00:22:31;13.07;;;8.13;;
1358;SDS011;673;48.098;14.422;2023-02-07T00:24:58;8.73;;;6.32;;
1358;SDS011;673;48.098;14.422;2023-02-07T00:27:26;10.68;;;7.63;;
1358;SDS011;673;48.098;14.422;2023-02-07T00:29:53;11.57;;;6.60;;
1358;SDS011;673;48.098;14.422;2023-02-07T00:32:20;9.90;;;6.28;;
1358;SDS011;673;48.098;14.422;2023-02-07T00:34:47;11.20;;;6.65;;
1358;SDS011;673;48.098;14.422;2023-02-07T00:37:15;9.10;;;7.28;;
1358;SDS011;673;48.098;14.422;2023-02-07T00:39:42;10.20;;;6.50;;
1358;SDS011;673;48.098;14.422;2023-02-07T00:42:09;10.68;;;5.95;;
1358;SDS011;673;48.098;14.422;2023-02-07T00:44:37;7.28;;;4.65;;
1358;SDS011;673;48.098;14.422;2023-02-07T00:47:04;14.15;;;7.53;;
1358;SDS011;673;48.098;14.422;2023-02-07T00:49:31;10.82;;;6.60;;
1358;SDS011;673;48.098;14.422;2023-02-07T00:51:58;10.85;;;8.20;;
1358;SDS011;673;48.098;14.422;2023-02-07T00:54:26;13.52;;;9.25;;
1358;SDS011;673;48.098;14.422;2023-02-07T00:56:52;14.10;;;7.68;;
1358;SDS011;673;48.098;14.422;2023-02-07T00:59:19;11.68;;;6.75;;
1358;SDS011;673;48.098;14.422;2023-02-07T01:01:48;11.73;;;6.05;;
1358;SDS011;673;48.098;14.422;2023-02-07T01:04:15;12.63;;;7.05;;
1358;SDS011;673;48.098;14.422;2023-02-07T01:06:42;15.40;;;8.23;;
1358;SDS011;673;48.098;14.422;2023-02-07T01:09:09;10.50;;;8.27;;
1358;SDS011;673;48.098;14.422;2023-02-07T01:11:36;13.38;;;8.45;;
1358;SDS011;673;48.098;14.422;2023-02-07T01:14:03;12.43;;;7.35;;
1358;SDS011;673;48.098;14.422;2023-02-07T01:16:30;19.35;;;10.23;;
1358;SDS011;673;48.098;14.422;2023-02-07T01:19:01;12.38;;;8.45;;
1358;SDS011;673;48.098;14.422;2023-02-07T01:21:29;17.10;;;10.20;;
1358;SDS011;673;48.098;14.422;2023-02-07T01:23:56;16.50;;;9.38;;
1358;SDS011;673;48.098;14.422;2023-02-07T01:26:23;15.38;;;9.68;;
1358;SDS011;673;48.098;14.422;2023-02-07T01:28:51;17.73;;;10.32;;
1358;SDS011;673;48.098;14.422;2023-02-07T01:31:20;13.88;;;9.55;;
1358;SDS011;673;48.098;14.422;2023-02-07T01:33:51;24.27;;;11.25;;
1358;SDS011;673;48.098;14.422;2023-02-07T01:36:19;17.60;;;9.95;;
1358;SDS011;673;48.098;14.422;2023-02-07T01:38:46;19.08;;;11.27;;
1358;SDS011;673;48.098;14.422;2023-02-07T01:41:14;19.42;;;11.70;;
1358;SDS011;673;48.098;14.422;2023-02-07T01:43:57;15.15;;;9.73;;
1358;SDS011;673;48.098;14.422;2023-02-07T01:46:27;20.63;;;10.02;;
1358;SDS011;673;48.098;14.422;2023-02-07T01:48:55;17.65;;;12.98;;
1358;SDS011;673;48.098;14.422;2023-02-07T01:51:26;23.90;;;10.80;;
1358;SDS011;673;48.098;14.422;2023-02-07T01:53:56;20.85;;;11.57;;
1358;SDS011;673;48.098;14.422;2023-02-07T01:56:26;26.02;;;12.10;;
1358;SDS011;673;48.098;14.422;2023-02-07T01:58:54;15.57;;;10.70;;
1358;SDS011;673;48.098;14.422;2023-02-07T02:01:22;15.55;;;9.20;;
1358;SDS011;673;48.098;14.422;2023-02-07T02:03:51;25.73;;;12.82;;
1358;SDS011;673;48.098;14.422;2023-02-07T02:06:20;17.63;;;12.90;;
1358;SDS011;673;48.098;14.422;2023-02-07T02:08:52;15.43;;;7.32;;
1358;SDS011;673;48.098;14.422;2023-02-07T02:11:33;16.70;;;11.15;;
1358;SDS011;673;48.098;14.422;2023-02-07T02:14:28;21.20;;;11.98;;
1358;SDS011;673;48.098;14.422;2023-02-07T02:17:09;17.65;;;10.77;;
1358;SDS011;673;48.098;14.422;2023-02-07T02:19:57;24.70;;;10.60;;
1358;SDS011;673;48.098;14.422;2023-02-07T02:22:54;13.77;;;9.35;;
1358;SDS011;673;48.098;14.422;2023-02-07T02:25:36;19.48;;;10.65;;
1358;SDS011;673;48.098;14.422;2023-02-07T02:28:53;14.82;;;10.70;;
1358;SDS011;673;48.098;14.422;2023-02-07T02:35:03;15.32;;;8.10;;
1358;SDS011;673;48.098;14.422;2023-02-07T02:37:35;21.52;;;10.18;;
1358;SDS011;673;48.098;14.422;2023-02-07T02:40:13;16.70;;;9.35;;
1358;SDS011;673;48.098;14.422;2023-02-07T02:42:45;15.18;;;8.80;;
1358;SDS011;673;48.098;14.422;2023-02-07T02:45:18;18.80;;;8.05;;
1358;SDS011;673;48.098;14.422;2023-02-07T02:47:49;18.33;;;9.30;;
1358;SDS011;673;48.098;14.422;2023-02-07T02:50:21;12.27;;;8.02;;
1358;SDS011;673;48.098;14.422;2023-02-07T02:52:50;17.02;;;9.15;;
1358;SDS011;673;48.098;14.422;2023-02-07T02:55:17;17.33;;;8.55;;
1358;SDS011;673;48.098;14.422;2023-02-07T02:57:59;9.60;;;6.88;;
1358;SDS011;673;48.098;14.422;2023-02-07T03:00:36;10.10;;;6.50;;
1358;SDS011;673;48.098;14.422;2023-02-07T03:03:21;15.30;;;8.18;;
1358;SDS011;673;48.098;14.422;2023-02-07T03:06:04;11.52;;;7.07;;
1358;SDS011;673;48.098;14.422;2023-02-07T03:08:43;13.20;;;5.82;;
1358;SDS011;673;48.098;14.422;2023-02-07T03:11:19;10.85;;;5.85;;
1358;SDS011;673;48.098;14.422;2023-02-07T03:13:51;14.45;;;9.30;;
1358;SDS011;673;48.098;14.422;2023-02-07T03:16:27;18.48;;;8.57;;
1358;SDS011;673;48.098;14.422;2023-02-07T03:18:59;17.92;;;9.30;;
1358;SDS011;673;48.098;14.422;2023-02-07T03:21:34;16.73;;;8.90;;
1358;SDS011;673;48.098;14.422;2023-02-07T03:24:05;16.30;;;10.73;;
1358;SDS011;673;48.098;14.422;2023-02-07T03:26:35;13.98;;;9.85;;
1358;SDS011;673;48.098;14.422;2023-02-07T03:29:05;16.10;;;9.82;;
1358;SDS011;673;48.098;14.422;2023-02-07T03:31:35;17.95;;;11.45;;
1358;SDS011;673;48.098;14.422;2023-02-07T03:34:07;11.65;;;9.43;;
1358;SDS011;673;48.098;14.422;2023-02-07T03:36:39;17.67;;;11.43;;
1358;SDS011;673;48.098;14.422;2023-02-07T03:39:11;22.23;;;12.85;;
1358;SDS011;673;48.098;14.422;2023-02-07T03:41:39;21.33;;;12.93;;
1358;SDS011;673;48.098;14.422;2023-02-07T03:44:09;23.73;;;13.15;;
1358;SDS011;673;48.098;14.422;2023-02-07T03:46:39;15.93;;;9.90;;
1358;SDS011;673;48.098;14.422;2023-02-07T03:49:07;22.92;;;13.93;;
1358;SDS011;673;48.098;14.422;2023-02-07T03:51:35;15.10;;;8.82;;
1358;SDS011;673;48.098;14.422;2023-02-07T03:54:04;14.80;;;10.10;;
1358;SDS011;673;48.098;14.422;2023-02-07T03:56:31;17.25;;;11.18;;
1358;SDS011;673;48.098;14.422;2023-02-07T03:58:58;18.83;;;10.68;;
1358;SDS011;673;48.098;14.422;2023-02-07T04:01:25;15.35;;;7.68;;
1358;SDS011;673;48.098;14.422;2023-02-07T04:03:52;17.70;;;10.88;;
1358;SDS011;673;48.098;14.422;2023-02-07T04:06:20;23.25;;;12.40;;
1358;SDS011;673;48.098;14.422;2023-02-07T04:08:47;108.95;;;46.55;;
1358;SDS011;673;48.098;14.422;2023-02-07T04:11:16;75.45;;;38.85;;
1358;SDS011;673;48.098;14.422;2023-02-07T04:13:43;125.15;;;53.90;;
1358;SDS011;673;48.098;14.422;2023-02-07T04:16:09;245.27;;;102.18;;
1358;SDS011;673;48.098;14.422;2023-02-07T04:18:36;442.10;;;187.65;;
1358;SDS011;673;48.098;14.422;2023-02-07T04:21:04;108.50;;;50.35;;
1358;SDS011;673;48.098;14.422;2023-02-07T04:23:33;30.20;;;15.60;;
1358;SDS011;673;48.098;14.422;2023-02-07T04:26:00;25.08;;;13.13;;
1358;SDS011;673;48.098;14.422;2023-02-07T04:28:28;21.30;;;10.48;;
1358;SDS011;673;48.098;14.422;2023-02-07T04:30:55;24.58;;;13.90;;
1358;SDS011;673;48.098;14.422;2023-02-07T04:33:22;19.88;;;11.73;;
1358;SDS011;673;48.098;14.422;2023-02-07T04:35:53;17.63;;;12.35;;
1358;SDS011;673;48.098;14.422;2023-02-07T04:38:20;21.92;;;13.70;;
1358;SDS011;673;48.098;14.422;2023-02-07T04:40:48;21.40;;;11.88;;
1358;SDS011;673;48.098;14.422;2023-02-07T04:43:15;24.02;;;13.43;;
1358;SDS011;673;48.098;14.422;2023-02-07T04:45:45;17.75;;;14.35;;
1358;SDS011;673;48.098;14.422;2023-02-07T04:48:12;26.13;;;16.33;;
1358;SDS011;673;48.098;14.422;2023-02-07T04:50:39;25.98;;;15.32;;
1358;SDS011;673;48.098;14.422;2023-02-07T04:53:06;28.67;;;14.88;;
1358;SDS011;673;48.098;14.422;2023-02-07T04:55:33;19.60;;;14.00;;
1358;SDS011;673;48.098;14.422;2023-02-07T04:58:01;22.08;;;14.52;;
1358;SDS011;673;48.098;14.422;2023-02-07T05:00:28;22.83;;;13.45;;
1358;SDS011;673;48.098;14.422;2023-02-07T05:02:56;25.88;;;14.25;;
1358;SDS011;673;48.098;14.422;2023-02-07T05:05:23;26.10;;;14.15;;
1358;SDS011;673;48.098;14.422;2023-02-07T05:07:50;24.17;;;14.50;;
1358;SDS011;673;48.098;14.422;2023-02-07T05:10:18;26.13;;;14.70;;
1358;SDS011;673;48.098;14.422;2023-02-07T05:12:45;19.13;;;12.77;;
1358;SDS011;673;48.098;14.422;2023-02-07T05:15:12;22.27;;;13.75;;
1358;SDS011;673;48.098;14.422;2023-02-07T05:17:38;26.48;;;13.15;;
1358;SDS011;673;48.098;14.422;2023-02-07T05:20:08;24.92;;;13.98;;
1358;SDS011;673;48.098;14.422;2023-02-07T05:22:35;24.08;;;14.15;;
1358;SDS011;673;48.098;14.422;2023-02-07T05:25:02;30.02;;;13.80;;
1358;SDS011;673;48.098;14.422;2023-02-07T05:27:30;25.40;;;13.65;;
1358;SDS011;673;48.098;14.422;2023-02-07T05:29:57;25.08;;;13.23;;
1358;SDS011;673;48.098;14.422;2023-02-07T05:32:24;14.82;;;10.55;;
1358;SDS011;673;48.098;14.422;2023-02-07T05:35:10;27.58;;;14.05;;
1358;SDS011;673;48.098;14.422;2023-02-07T05:37:37;23.35;;;13.68;;
1358;SDS011;673;48.098;14.422;2023-02-07T05:40:04;26.63;;;14.35;;
1358;SDS011;673;48.098;14.422;2023-02-07T05:42:31;26.08;;;13.13;;
1358;SDS011;673;48.098;14.422;2023-02-07T05:44:58;23.33;;;13.70;;
1358;SDS011;673;48.098;14.422;2023-02-07T05:47:25;15.85;;;10.82;;
1358;SDS011;673;48.098;14.422;2023-02-07T05:49:53;21.98;;;12.23;;
1358;SDS011;673;48.098;14.422;2023-02-07T05:52:21;20.58;;;11.07;;
1358;SDS011;673;48.098;14.422;2023-02-07T05:54:48;16.50;;;11.25;;
1358;SDS011;673;48.098;14.422;2023-02-07T05:57:15;22.65;;;12.02;;
1358;SDS011;673;48.098;14.422;2023-02-07T05:59:42;24.13;;;11.32;;
1358;SDS011;673;48.098;14.422;2023-02-07T06:02:09;21.42;;;11.02;;
1358;SDS011;673;48.098;14.422;2023-02-07T06:04:36;27.13;;;11.95;;
1358;SDS011;673;48.098;14.422;2023-02-07T06:07:03;14.00;;;9.45;;
1358;SDS011;673;48.098;14.422;2023-02-07T06:09:32;18.92;;;8.70;;
1358;SDS011;673;48.098;14.422;2023-02-07T06:11:58;16.73;;;11.43;;
1358;SDS011;673;48.098;14.422;2023-02-07T06:14:26;19.13;;;9.27;;
1358;SDS011;673;48.098;14.422;2023-02-07T06:16:53;15.35;;;9.38;;
1358;SDS011;673;48.098;14.422;2023-02-07T06:19:20;19.75;;;10.45;;
1358;SDS011;673;48.098;14.422;2023-02-07T06:21:47;22.17;;;10.82;;
1358;SDS011;673;48.098;14.422;2023-02-07T06:24:14;22.88;;;12.65;;
1358;SDS011;673;48.098;14.422;2023-02-07T06:26:43;20.52;;;10.20;;
1358;SDS011;673;48.098;14.422;2023-02-07T06:29:10;21.80;;;11.80;;
1358;SDS011;673;48.098;14.422;2023-02-07T06:31:37;18.42;;;9.95;;
1358;SDS011;673;48.098;14.422;2023-02-07T06:34:04;17.08;;;11.00;;
1358;SDS011;673;48.098;14.422;2023-02-07T06:36:31;22.33;;;11.60;;
1358;SDS011;673;48.098;14.422;2023-02-07T06:38:58;18.98;;;11.25;;
1358;SDS011;673;48.098;14.422;2023-02-07T06:41:25;15.25;;;6.97;;
1358;SDS011;673;48.098;14.422;2023-02-07T06:43:54;15.70;;;10.55;;
1358;SDS011;673;48.098;14.422;2023-02-07T06:46:21;18.38;;;9.35;;
1358;SDS011;673;48.098;14.422;2023-02-07T06:48:48;17.08;;;10.68;;
1358;SDS011;673;48.098;14.422;2023-02-07T06:51:15;18.85;;;10.38;;
1358;SDS011;673;48.098;14.422;2023-02-07T06:53:42;17.58;;;9.20;;
1358;SDS011;673;48.098;14.422;2023-02-07T06:56:09;20.48;;;9.13;;
1358;SDS011;673;48.098;14.422;2023-02-07T06:58:36;17.13;;;9.13;;
1358;SDS011;673;48.098;14.422;2023-02-07T07:01:04;15.88;;;8.98;;
1358;SDS011;673;48.098;14.422;2023-02-07T07:03:31;17.70;;;10.48;;
1358;SDS011;673;48.098;14.422;2023-02-07T07:05:58;18.73;;;10.40;;
1358;SDS011;673;48.098;14.422;2023-02-07T07:08:26;16.42;;;9.85;;
1358;SDS011;673;48.098;14.422;2023-02-07T07:10:53;26.95;;;11.98;;
1358;SDS011;673;48.098;14.422;2023-02-07T07:13:21;21.98;;;11.43;;
1358;SDS011;673;48.098;14.422;2023-02-07T07:15:48;18.27;;;11.05;;
1358;SDS011;673;48.098;14.422;2023-02-07T07:18:17;16.48;;;10.38;;
1358;SDS011;673;48.098;14.422;2023-02-07T07:20:44;21.13;;;11.55;;
1358;SDS011;673;48.098;14.422;2023-02-07T07:23:11;23.58;;;12.68;;
1358;SDS011;673;48.098;14.422;2023-02-07T07:25:38;20.25;;;12.43;;
1358;SDS011;673;48.098;14.422;2023-02-07T07:28:05;32.65;;;14.45;;
1358;SDS011;673;48.098;14.422;2023-02-07T07:30:32;26.40;;;12.40;;
1358;SDS011;673;48.098;14.422;2023-02-07T07:32:59;24.17;;;14.13;;
1358;SDS011;673;48.098;14.422;2023-02-07T07:35:27;25.55;;;11.65;;
1358;SDS011;673;48.098;14.422;2023-02-07T07:37:54;22.92;;;13.48;;
1358;SDS011;673;48.098;14.422;2023-02-07T07:40:21;24.05;;;14.00;;
1358;SDS011;673;48.098;14.422;2023-02-07T07:42:48;27.52;;;16.52;;
1358;SDS011;673;48.098;14.422;2023-02-07T07:45:15;27.30;;;14.50;;
1358;SDS011;673;48.098;14.422;2023-02-07T07:47:43;27.65;;;14.27;;
1358;SDS011;673;48.098;14.422;2023-02-07T07:50:11;28.60;;;21.63;;
1358;SDS011;673;48.098;14.422;2023-02-07T07:52:39;28.90;;;16.95;;
1358;SDS011;673;48.098;14.422;2023-02-07T07:55:07;30.17;;;20.90;;
1358;SDS011;673;48.098;14.422;2023-02-07T07:57:34;28.50;;;16.20;;
1358;SDS011;673;48.098;14.422;2023-02-07T08:00:02;22.42;;;15.02;;
1358;SDS011;673;48.098;14.422;2023-02-07T08:02:30;22.30;;;14.35;;
1358;SDS011;673;48.098;14.422;2023-02-07T08:04:57;19.77;;;12.05;;
1358;SDS011;673;48.098;14.422;2023-02-07T08:07:24;22.95;;;14.30;;
1358;SDS011;673;48.098;14.422;2023-02-07T08:09:53;25.13;;;15.88;;
1358;SDS011;673;48.098;14.422;2023-02-07T08:12:20;23.30;;;12.93;;
1358;SDS011;673;48.098;14.422;2023-02-07T08:14:47;34.78;;;16.90;;
1358;SDS011;673;48.098;14.422;2023-02-07T08:17:14;31.23;;;16.75;;
1358;SDS011;673;48.098;14.422;2023-02-07T08:19:41;21.98;;;11.45;;
1358;SDS011;673;48.098;14.422;2023-02-07T08:22:08;28.40;;;16.60;;
1358;SDS011;673;48.098;14.422;2023-02-07T08:24:34;28.95;;;15.15;;
1358;SDS011;673;48.098;14.422;2023-02-07T08:27:03;23.35;;;16.00;;
1358;SDS011;673;48.098;14.422;2023-02-07T08:29:30;30.52;;;16.75;;
1358;SDS011;673;48.098;14.422;2023-02-07T08:31:57;30.35;;;18.05;;
1358;SDS011;673;48.098;14.422;2023-02-07T08:34:24;21.92;;;15.90;;
1358;SDS011;673;48.098;14.422;2023-02-07T08:36:52;29.67;;;15.88;;
1358;SDS011;673;48.098;14.422;2023-02-07T08:39:20;23.20;;;15.10;;
1358;SDS011;673;48.098;14.422;2023-02-07T08:41:46;32.63;;;16.73;;
1358;SDS011;673;48.098;14.422;2023-02-07T08:44:15;33.55;;;18.60;;
1358;SDS011;673;48.098;14.422;2023-02-07T08:46:42;31.65;;;18.55;;
1358;SDS011;673;48.098;14.422;2023-02-07T08:49:09;28.33;;;16.23;;
1358;SDS011;673;48.098;14.422;2023-02-07T08:51:36;32.53;;;18.63;;
1358;SDS011;673;48.098;14.422;2023-02-07T08:54:03;27.45;;;16.65;;
1358;SDS011;673;48.098;14.422;2023-02-07T08:56:30;23.02;;;16.08;;
1358;SDS011;673;48.098;14.422;2023-02-07T08:58:57;40.85;;;17.40;;
1358;SDS011;673;48.098;14.422;2023-02-07T09:01:26;29.88;;;17.52;;
1358;SDS011;673;48.098;14.422;2023-02-07T09:03:53;31.88;;;17.42;;
1358;SDS011;673;48.098;14.422;2023-02-07T09:06:21;34.00;;;19.63;;
1358;SDS011;673;48.098;14.422;2023-02-07T09:08:48;26.48;;;15.55;;
1358;SDS011;673;48.098;14.422;2023-02-07T09:11:15;24.83;;;16.08;;
1358;SDS011;673;48.098;14.422;2023-02-07T09:13:42;30.95;;;18.17;;
1358;SDS011;673;48.098;14.422;2023-02-07T09:16:11;29.30;;;17.42;;
1358;SDS011;673;48.098;14.422;2023-02-07T09:18:40;30.77;;;18.60;;
1358;SDS011;673;48.098;14.422;2023-02-07T09:21:07;30.50;;;18.80;;
1358;SDS011;673;48.098;14.422;2023-02-07T09:23:34;32.53;;;16.70;;
1358;SDS011;673;48.098;14.422;2023-02-07T09:26:03;37.17;;;20.55;;
1358;SDS011;673;48.098;14.422;2023-02-07T09:28:31;26.55;;;15.95;;
1358;SDS011;673;48.098;14.422;2023-02-07T09:30:58;28.88;;;18.48;;
1358;SDS011;673;48.098;14.422;2023-02-07T09:33:25;30.08;;;17.45;;
1358;SDS011;673;48.098;14.422;2023-02-07T09:35:55;25.15;;;16.73;;
1358;SDS011;673;48.098;14.422;2023-02-07T09:38:22;25.00;;;15.23;;
1358;SDS011;673;48.098;14.422;2023-02-07T09:40:50;35.92;;;17.50;;
1358;SDS011;673;48.098;14.422;2023-02-07T09:43:23;25.70;;;13.88;;
1358;SDS011;673;48.098;14.422;2023-02-07T09:45:56;26.42;;;15.93;;
1358;SDS011;673;48.098;14.422;2023-02-07T09:48:28;25.70;;;15.95;;
1358;SDS011;673;48.098;14.422;2023-02-07T09:51:05;26.10;;;16.80;;
1358;SDS011;673;48.098;14.422;2023-02-07T09:53:37;29.55;;;17.67;;
1358;SDS011;673;48.098;14.422;2023-02-07T09:56:08;25.70;;;13.63;;
1358;SDS011;673;48.098;14.422;2023-02-07T09:58:38;26.58;;;15.15;;
1358;SDS011;673;48.098;14.422;2023-02-07T10:01:10;23.92;;;15.80;;
1358;SDS011;673;48.098;14.422;2023-02-07T10:03:42;23.70;;;14.25;;
1358;SDS011;673;48.098;14.422;2023-02-07T10:06:16;31.23;;;15.80;;
1358;SDS011;673;48.098;14.422;2023-02-07T10:08:52;34.50;;;17.95;;
1358;SDS011;673;48.098;14.422;2023-02-07T10:11:23;25.63;;;17.20;;
1358;SDS011;673;48.098;14.422;2023-02-07T10:14:05;31.30;;;16.05;;
1358;SDS011;673;48.098;14.422;2023-02-07T10:16:49;28.08;;;18.15;;
1358;SDS011;673;48.098;14.422;2023-02-07T10:19:26;34.70;;;17.95;;
1358;SDS011;673;48.098;14.422;2023-02-07T10:22:07;32.83;;;20.92;;
1358;SDS011;673;48.098;14.422;2023-02-07T10:24:48;34.30;;;16.73;;
1358;SDS011;673;48.098;14.422;2023-02-07T10:27:29;30.15;;;18.40;;
1358;SDS011;673;48.098;14.422;2023-02-07T10:30:01;27.48;;;15.93;;
1358;SDS011;673;48.098;14.422;2023-02-07T10:32:35;30.80;;;18.55;;
1358;SDS011;673;48.098;14.422;2023-02-07T10:35:06;30.13;;;16.95;;
1358;SDS011;673;48.098;14.422;2023-02-07T10:37:43;26.58;;;15.63;;
1358;SDS011;673;48.098;14.422;2023-02-07T10:40:13;23.45;;;13.93;;
1358;SDS011;673;48.098;14.422;2023-02-07T10:42:44;30.50;;;18.95;;
1358;SDS011;673;48.098;14.422;2023-02-07T10:45:15;33.83;;;21.38;;
1358;SDS011;673;48.098;14.422;2023-02-07T10:47:44;32.00;;;18.48;;
1358;SDS011;673;48.098;14.422;2023-02-07T10:50:13;26.58;;;19.55;;
1358;SDS011;673;48.098;14.422;2023-02-07T10:52:45;23.30;;;14.48;;
1358;SDS011;673;48.098;14.422;2023-02-07T10:55:16;23.45;;;15.73;;
1358;SDS011;673;48.098;14.422;2023-02-07T10:57:51;27.15;;;18.70;;
1358;SDS011;673;48.098;14.422;2023-02-07T11:00:21;23.25;;;16.48;;
1358;SDS011;673;48.098;14.422;2023-02-07T11:02:51;24.45;;;16.45;;
1358;SDS011;673;48.098;14.422;2023-02-07T11:05:27;22.88;;;14.45;;
1358;SDS011;673;48.098;14.422;2023-02-07T11:08:01;32.92;;;15.27;;
1358;SDS011;673;48.098;14.422;2023-02-07T11:10:32;25.60;;;17.38;;
1358;SDS011;673;48.098;14.422;2023-02-07T11:13:02;21.00;;;14.80;;
1358;SDS011;673;48.098;14.422;2023-02-07T11:15:44;25.58;;;15.05;;
1358;SDS011;673;48.098;14.422;2023-02-07T11:21:06;20.25;;;12.80;;
1358;SDS011;673;48.098;14.422;2023-02-07T11:23:47;29.48;;;14.68;;
1358;SDS011;673;48.098;14.422;2023-02-07T11:26:15;24.63;;;16.40;;
1358;SDS011;673;48.098;14.422;2023-02-07T11:28:44;29.25;;;17.23;;
1358;SDS011;673;48.098;14.422;2023-02-07T11:31:16;25.60;;;15.23;;
1358;SDS011;673;48.098;14.422;2023-02-07T11:33:44;24.33;;;13.32;;
1358;SDS011;673;48.098;14.422;2023-02-07T11:36:12;19.25;;;13.45;;
1358;SDS011;673;48.098;14.422;2023-02-07T11:38:49;23.13;;;14.73;;
1358;SDS011;673;48.098;14.422;2023-02-07T11:41:20;22.67;;;13.30;;
1358;SDS011;673;48.098;14.422;2023-02-07T11:43:54;17.90;;;12.30;;
1358;SDS011;673;48.098;14.422;2023-02-07T11:46:28;20.45;;;12.75;;
1358;SDS011;673;48.098;14.422;2023-02-07T11:48:58;19.98;;;12.52;;
1358;SDS011;673;48.098;14.422;2023-02-07T11:51:26;18.08;;;11.18;;
1358;SDS011;673;48.098;14.422;2023-02-07T11:53:58;19.90;;;12.80;;
1358;SDS011;673;48.098;14.422;2023-02-07T11:56:29;23.23;;;16.63;;
1358;SDS011;673;48.098;14.422;2023-02-07T11:58:59;25.50;;;12.50;;
1358;SDS011;673;48.098;14.422;2023-02-07T12:01:30;17.75;;;9.80;;
1358;SDS011;673;48.098;14.422;2023-02-07T12:03:59;15.50;;;8.55;;
1358;SDS011;673;48.098;14.422;2023-02-07T12:06:28;11.60;;;8.23;;
1358;SDS011;673;48.098;14.422;2023-02-07T12:09:02;15.38;;;9.75;;
1358;SDS011;673;48.098;14.422;2023-02-07T12:11:35;21.48;;;12.57;;
1358;SDS011;673;48.098;14.422;2023-02-07T12:14:09;16.70;;;11.27;;
1358;SDS011;673;48.098;14.422;2023-02-07T12:16:42;14.10;;;9.85;;
1358;SDS011;673;48.098;14.422;2023-02-07T12:19:15;14.13;;;8.80;;
1358;SDS011;673;48.098;14.422;2023-02-07T12:21:49;13.73;;;7.22;;
1358;SDS011;673;48.098;14.422;2023-02-07T12:24:23;10.90;;;7.75;;
1358;SDS011;673;48.098;14.422;2023-02-07T12:26:57;13.13;;;7.40;;
1358;SDS011;673;48.098;14.422;2023-02-07T12:29:30;15.25;;;8.95;;
1358;SDS011;673;48.098;14.422;2023-02-07T12:32:07;11.85;;;7.57;;
1358;SDS011;673;48.098;14.422;2023-02-07T12:34:40;13.00;;;8.02;;
1358;SDS011;673;48.098;14.422;2023-02-07T12:37:16;10.43;;;6.10;;
1358;SDS011;673;48.098;14.422;2023-02-07T12:39:53;13.38;;;7.97;;
1358;SDS011;673;48.098;14.422;2023-02-07T12:42:29;10.20;;;5.70;;
1358;SDS011;673;48.098;14.422;2023-02-07T12:45:02;6.78;;;4.68;;
1358;SDS011;673;48.098;14.422;2023-02-07T12:47:35;12.18;;;5.45;;
1358;SDS011;673;48.098;14.422;2023-02-07T12:53:31;8.20;;;5.07;;
1358;SDS011;673;48.098;14.422;2023-02-07T12:56:11;10.60;;;4.65;;
1358;SDS011;673;48.098;14.422;2023-02-07T12:58:49;4.72;;;3.25;;
1358;SDS011;673;48.098;14.422;2023-02-07T13:01:27;6.63;;;4.97;;
1358;SDS011;673;48.098;14.422;2023-02-07T13:07:03;6.43;;;4.30;;
1358;SDS011;673;48.098;14.422;2023-02-07T13:09:41;6.20;;;3.50;;
1358;SDS011;673;48.098;14.422;2023-02-07T13:12:15;4.43;;;3.10;;
1358;SDS011;673;48.098;14.422;2023-02-07T13:14:54;7.68;;;4.47;;
1358;SDS011;673;48.098;14.422;2023-02-07T13:17:42;4.50;;;2.73;;
1358;SDS011;673;48.098;14.422;2023-02-07T13:20:20;4.17;;;2.30;;
1358;SDS011;673;48.098;14.422;2023-02-07T13:23:05;4.27;;;2.43;;
1358;SDS011;673;48.098;14.422;2023-02-07T13:25:41;9.43;;;4.50;;
1358;SDS011;673;48.098;14.422;2023-02-07T13:28:18;6.20;;;4.30;;
1358;SDS011;673;48.098;14.422;2023-02-07T13:30:50;4.95;;;4.40;;
1358;SDS011;673;48.098;14.422;2023-02-07T13:33:24;8.18;;;5.70;;
1358;SDS011;673;48.098;14.422;2023-02-07T13:35:55;4.77;;;3.30;;
1358;SDS011;673;48.098;14.422;2023-02-07T13:38:33;3.50;;;2.37;;
1358;SDS011;673;48.098;14.422;2023-02-07T13:41:07;6.47;;;4.70;;
1358;SDS011;673;48.098;14.422;2023-02-07T13:43:42;8.77;;;5.00;;
1358;SDS011;673;48.098;14.422;2023-02-07T13:46:19;13.63;;;5.60;;
1358;SDS011;673;48.098;14.422;2023-02-07T13:49:04;10.77;;;5.20;;
1358;SDS011;673;48.098;14.422;2023-02-07T13:51:40;7.97;;;4.03;;
1358;SDS011;673;48.098;14.422;2023-02-07T13:54:18;6.60;;;4.60;;
1358;SDS011;673;48.098;14.422;2023-02-07T13:56:56;12.05;;;5.00;;
1358;SDS011;673;48.098;14.422;2023-02-07T13:59:44;7.97;;;5.05;;
1358;SDS011;673;48.098;14.422;2023-02-07T14:02:37;8.33;;;5.83;;
1358;SDS011;673;48.098;14.422;2023-02-07T14:05:07;7.50;;;4.80;;
1358;SDS011;673;48.098;14.422;2023-02-07T14:07:35;11.93;;;6.10;;
1358;SDS011;673;48.098;14.422;2023-02-07T14:10:04;5.83;;;4.60;;
1358;SDS011;673;48.098;14.422;2023-02-07T14:12:33;9.10;;;5.73;;
1358;SDS011;673;48.098;14.422;2023-02-07T14:21:29;9.60;;;4.40;;
1358;SDS011;673;48.098;14.422;2023-02-07T14:27:00;8.53;;;5.70;;
1358;SDS011;673;48.098;14.422;2023-02-07T14:29:37;7.30;;;5.00;;
1358;SDS011;673;48.098;14.422;2023-02-07T14:32:37;9.17;;;6.27;;
1358;SDS011;673;48.098;14.422;2023-02-07T14:35:28;6.88;;;3.67;;
1358;SDS011;673;48.098;14.422;2023-02-07T14:38:02;5.40;;;4.00;;
1358;SDS011;673;48.098;14.422;2023-02-07T14:40:48;11.20;;;6.40;;
1358;SDS011;673;48.098;14.422;2023-02-07T14:43:22;5.38;;;4.40;;
1358;SDS011;673;48.098;14.422;2023-02-07T14:45:59;12.70;;;6.07;;
1358;SDS011;673;48.098;14.422;2023-02-07T14:48:37;6.95;;;4.32;;
1358;SDS011;673;48.098;14.422;2023-02-07T14:51:15;5.33;;;2.93;;
1358;SDS011;673;48.098;14.422;2023-02-07T14:53:48;5.77;;;3.43;;
1358;SDS011;673;48.098;14.422;2023-02-07T14:56:28;4.60;;;3.23;;
1358;SDS011;673;48.098;14.422;2023-02-07T14:59:06;8.00;;;3.10;;
1358;SDS011;673;48.098;14.422;2023-02-07T15:01:35;5.90;;;3.40;;
1358;SDS011;673;48.098;14.422;2023-02-07T15:04:03;6.03;;;4.20;;
1358;SDS011;673;48.098;14.422;2023-02-07T15:06:36;7.37;;;4.17;;
1358;SDS011;673;48.098;14.422;2023-02-07T15:09:06;4.77;;;2.77;;
1358;SDS011;673;48.098;14.422;2023-02-07T15:11:42;8.20;;;3.83;;
1358;SDS011;673;48.098;14.422;2023-02-07T15:14:13;7.00;;;3.30;;
1358;SDS011;673;48.098;14.422;2023-02-07T15:16:46;6.53;;;3.50;;
1358;SDS011;673;48.098;14.422;2023-02-07T15:19:16;6.97;;;5.37;;
1358;SDS011;673;48.098;14.422;2023-02-07T15:21:48;8.50;;;4.93;;
1358;SDS011;673;48.098;14.422;2023-02-07T15:24:17;6.70;;;4.60;;
1358;SDS011;673;48.098;14.422;2023-02-07T15:26:52;27.23;;;16.75;;
1358;SDS011;673;48.098;14.422;2023-02-07T15:29:23;12.80;;;6.57;;
1358;SDS011;673;48.098;14.422;2023-02-07T15:31:51;21.17;;;12.20;;
1358;SDS011;673;48.098;14.422;2023-02-07T15:34:18;19.47;;;10.20;;
1358;SDS011;673;48.098;14.422;2023-02-07T15:36:47;20.52;;;7.03;;
1358;SDS011;673;48.098;14.422;2023-02-07T15:39:17;9.83;;;4.80;;